Villas de San Ignacio, Puerto Rico
Current Conditions -  °F | °C
As of 10:50 AM on Wednesday 26 Nov 2014 (Local Time) from TJIG Reporting Station
Broken Clouds Broken Clouds  
Wind Chill: 29°   Ceiling: 10000
Heat Index: 33°   Visibility: 10mi
Dew Point: 23°   Wind: 14mph
Humidity: 70%   Direction: 90°E
Pressure: 30.07"   Gusts: NA
Location:  18.3878°N, 66.0742°W
Report Text: TJIG 261450Z 09012KT 10SM SCT033 BKN100 29/23 A3007 RMK RY09 IN USE ATIS F
Loading
Personal Weather Stations






























Interactive Weather Map New forecast layout! Learn more

10-Day Weather Forecast

Advertisements
Track Severe Weather on mobile